Terminal Aerodrome Forecast
Issued by NWS Austin/San Antonio, TX

Home | Current Version | Previous Version | Text Only | Print | Product List | Glossary On
Versions: 1 2 3 4 5 6 7 8 9 10 11 12 13 14 15 16 17 18 19
000
FTUS44 KEWX 310600 AAA
TAFSAT
TAF AMD
KSAT 310640Z 3107/0112 16010KT P6SM BKN016
     FM311600 16010KT P6SM SCT035
     FM312000 15013G18KT P6SM SCT060
     FM010300 16010KT P6SM FEW030
     FM010600 17005KT P6SM BKN015=

USA.gov is the U.S. government's official web portal to all federal, state and local government web resources and services.